sensor_id;sensor_type;location;lat;lon;timestamp;temperature;humidity
7684;DHT22;3884;48.616;12.872;2023-10-09T00:02:43;13.00;99.90
7684;DHT22;3884;48.616;12.872;2023-10-09T00:05:10;13.00;99.90
7684;DHT22;3884;48.616;12.872;2023-10-09T00:07:48;13.00;99.90
7684;DHT22;3884;48.616;12.872;2023-10-09T00:10:16;13.00;99.90
7684;DHT22;3884;48.616;12.872;2023-10-09T00:12:44;13.00;99.90
7684;DHT22;3884;48.616;12.872;2023-10-09T00:15:14;12.70;99.90
7684;DHT22;3884;48.616;12.872;2023-10-09T00:17:43;12.70;99.90
7684;DHT22;3884;48.616;12.872;2023-10-09T00:20:12;12.70;99.90
7684;DHT22;3884;48.616;12.872;2023-10-09T00:22:56;12.70;99.90
7684;DHT22;3884;48.616;12.872;2023-10-09T00:25:25;12.60;99.90
7684;DHT22;3884;48.616;12.872;2023-10-09T00:27:56;12.60;99.90
7684;DHT22;3884;48.616;12.872;2023-10-09T00:30:25;12.40;99.90
7684;DHT22;3884;48.616;12.872;2023-10-09T00:32:55;12.40;99.90
7684;DHT22;3884;48.616;12.872;2023-10-09T00:35:27;12.50;99.90
7684;DHT22;3884;48.616;12.872;2023-10-09T00:38:02;12.40;99.90
7684;DHT22;3884;48.616;12.872;2023-10-09T00:40:41;12.40;99.90
7684;DHT22;3884;48.616;12.872;2023-10-09T00:43:12;12.20;99.90
7684;DHT22;3884;48.616;12.872;2023-10-09T00:45:40;12.20;99.90
7684;DHT22;3884;48.616;12.872;2023-10-09T00:48:09;12.30;99.90
7684;DHT22;3884;48.616;12.872;2023-10-09T00:50:40;12.30;99.90
7684;DHT22;3884;48.616;12.872;2023-10-09T00:53:13;12.30;99.90
7684;DHT22;3884;48.616;12.872;2023-10-09T00:55:45;12.40;99.90
7684;DHT22;3884;48.616;12.872;2023-10-09T00:58:21;12.30;99.90
7684;DHT22;3884;48.616;12.872;2023-10-09T01:00:53;12.40;99.90
7684;DHT22;3884;48.616;12.872;2023-10-09T01:03:21;12.40;99.90
7684;DHT22;3884;48.616;12.872;2023-10-09T01:05:52;12.40;99.90
7684;DHT22;3884;48.616;12.872;2023-10-09T01:08:23;12.50;99.90
7684;DHT22;3884;48.616;12.872;2023-10-09T01:11:12;12.50;99.90
7684;DHT22;3884;48.616;12.872;2023-10-09T01:13:45;12.40;99.90
7684;DHT22;3884;48.616;12.872;2023-10-09T01:16:21;12.40;99.90
7684;DHT22;3884;48.616;12.872;2023-10-09T01:18:49;12.40;99.90
7684;DHT22;3884;48.616;12.872;2023-10-09T01:21:17;12.30;99.90
7684;DHT22;3884;48.616;12.872;2023-10-09T01:23:52;12.30;99.90
7684;DHT22;3884;48.616;12.872;2023-10-09T01:26:34;12.30;99.90
7684;DHT22;3884;48.616;12.872;2023-10-09T01:29:05;12.40;99.90
7684;DHT22;3884;48.616;12.872;2023-10-09T01:31:36;12.30;99.90
7684;DHT22;3884;48.616;12.872;2023-10-09T01:34:09;12.30;99.90
7684;DHT22;3884;48.616;12.872;2023-10-09T01:36:38;12.20;99.90
7684;DHT22;3884;48.616;12.872;2023-10-09T01:39:08;12.20;99.90
7684;DHT22;3884;48.616;12.872;2023-10-09T01:41:36;12.20;99.90
7684;DHT22;3884;48.616;12.872;2023-10-09T01:44:11;12.10;99.90
7684;DHT22;3884;48.616;12.872;2023-10-09T01:46:41;12.10;99.90
7684;DHT22;3884;48.616;12.872;2023-10-09T01:49:10;12.10;99.90
7684;DHT22;3884;48.616;12.872;2023-10-09T01:51:43;11.90;99.90
7684;DHT22;3884;48.616;12.872;2023-10-09T01:54:11;11.90;99.90
7684;DHT22;3884;48.616;12.872;2023-10-09T01:56:53;11.90;99.90
7684;DHT22;3884;48.616;12.872;2023-10-09T01:59:22;11.80;99.90
7684;DHT22;3884;48.616;12.872;2023-10-09T02:01:48;11.80;99.90
7684;DHT22;3884;48.616;12.872;2023-10-09T02:04:20;11.70;99.90
7684;DHT22;3884;48.616;12.872;2023-10-09T02:06:47;11.80;99.90
7684;DHT22;3884;48.616;12.872;2023-10-09T02:09:18;11.80;99.90
7684;DHT22;3884;48.616;12.872;2023-10-09T02:11:52;11.70;99.90
7684;DHT22;3884;48.616;12.872;2023-10-09T02:14:19;11.70;99.90
7684;DHT22;3884;48.616;12.872;2023-10-09T02:16:47;11.70;99.90
7684;DHT22;3884;48.616;12.872;2023-10-09T02:19:41;11.70;99.90
7684;DHT22;3884;48.616;12.872;2023-10-09T02:22:14;11.70;99.90
7684;DHT22;3884;48.616;12.872;2023-10-09T02:24:42;11.70;99.90
7684;DHT22;3884;48.616;12.872;2023-10-09T02:27:18;11.60;99.90
7684;DHT22;3884;48.616;12.872;2023-10-09T02:30:03;11.60;99.90
7684;DHT22;3884;48.616;12.872;2023-10-09T02:32:44;11.70;99.90
7684;DHT22;3884;48.616;12.872;2023-10-09T02:35:16;11.70;99.90
7684;DHT22;3884;48.616;12.872;2023-10-09T02:37:54;11.80;99.90
7684;DHT22;3884;48.616;12.872;2023-10-09T02:40:22;11.90;99.90
7684;DHT22;3884;48.616;12.872;2023-10-09T02:42:51;12.00;99.90
7684;DHT22;3884;48.616;12.872;2023-10-09T02:45:18;12.00;99.90
7684;DHT22;3884;48.616;12.872;2023-10-09T02:47:45;12.00;99.90
7684;DHT22;3884;48.616;12.872;2023-10-09T02:50:16;11.90;99.90
7684;DHT22;3884;48.616;12.872;2023-10-09T02:52:53;12.00;99.90
7684;DHT22;3884;48.616;12.872;2023-10-09T02:55:25;11.80;99.90
7684;DHT22;3884;48.616;12.872;2023-10-09T02:57:53;11.80;99.90
7684;DHT22;3884;48.616;12.872;2023-10-09T03:00:31;11.80;99.90
7684;DHT22;3884;48.616;12.872;2023-10-09T03:03:02;11.90;99.90
7684;DHT22;3884;48.616;12.872;2023-10-09T03:05:33;11.90;99.90
7684;DHT22;3884;48.616;12.872;2023-10-09T03:08:05;11.90;99.90
7684;DHT22;3884;48.616;12.872;2023-10-09T03:10:34;12.00;99.90
7684;DHT22;3884;48.616;12.872;2023-10-09T03:13:02;11.90;99.90
7684;DHT22;3884;48.616;12.872;2023-10-09T03:15:31;11.90;99.90
7684;DHT22;3884;48.616;12.872;2023-10-09T03:18:01;11.90;99.90
7684;DHT22;3884;48.616;12.872;2023-10-09T03:20:30;11.90;99.90
7684;DHT22;3884;48.616;12.872;2023-10-09T03:22:58;11.90;99.90
7684;DHT22;3884;48.616;12.872;2023-10-09T03:25:27;11.80;99.90
7684;DHT22;3884;48.616;12.872;2023-10-09T03:27:54;11.90;99.90
7684;DHT22;3884;48.616;12.872;2023-10-09T03:30:24;11.90;99.90
7684;DHT22;3884;48.616;12.872;2023-10-09T03:32:51;11.90;99.90
7684;DHT22;3884;48.616;12.872;2023-10-09T03:35:19;11.90;99.90
7684;DHT22;3884;48.616;12.872;2023-10-09T03:37:53;11.90;99.90
7684;DHT22;3884;48.616;12.872;2023-10-09T03:40:24;11.80;99.90
7684;DHT22;3884;48.616;12.872;2023-10-09T03:42:51;11.80;99.90
7684;DHT22;3884;48.616;12.872;2023-10-09T03:45:18;11.80;99.90
7684;DHT22;3884;48.616;12.872;2023-10-09T03:47:54;11.70;99.90
7684;DHT22;3884;48.616;12.872;2023-10-09T03:50:28;11.70;99.90
7684;DHT22;3884;48.616;12.872;2023-10-09T03:53:04;11.70;99.90
7684;DHT22;3884;48.616;12.872;2023-10-09T03:55:36;11.80;99.90
7684;DHT22;3884;48.616;12.872;2023-10-09T03:58:05;11.80;99.90
7684;DHT22;3884;48.616;12.872;2023-10-09T04:00:32;11.80;99.90
7684;DHT22;3884;48.616;12.872;2023-10-09T04:03:10;11.80;99.90
7684;DHT22;3884;48.616;12.872;2023-10-09T04:05:40;11.80;99.90
7684;DHT22;3884;48.616;12.872;2023-10-09T04:08:09;11.80;99.90
7684;DHT22;3884;48.616;12.872;2023-10-09T04:10:46;11.80;99.90
7684;DHT22;3884;48.616;12.872;2023-10-09T04:13:19;11.90;99.90
7684;DHT22;3884;48.616;12.872;2023-10-09T04:15:52;11.90;99.90
7684;DHT22;3884;48.616;12.872;2023-10-09T04:18:20;11.90;99.90
7684;DHT22;3884;48.616;12.872;2023-10-09T04:20:54;12.00;99.90
7684;DHT22;3884;48.616;12.872;2023-10-09T04:23:39;11.90;99.90
7684;DHT22;3884;48.616;12.872;2023-10-09T04:26:21;11.70;99.90
7684;DHT22;3884;48.616;12.872;2023-10-09T04:28:50;11.70;99.90
7684;DHT22;3884;48.616;12.872;2023-10-09T04:31:19;11.80;99.90
7684;DHT22;3884;48.616;12.872;2023-10-09T04:33:48;11.80;99.90
7684;DHT22;3884;48.616;12.872;2023-10-09T04:36:41;11.80;99.90
7684;DHT22;3884;48.616;12.872;2023-10-09T04:39:15;11.80;99.90
7684;DHT22;3884;48.616;12.872;2023-10-09T04:42:01;11.80;99.90
7684;DHT22;3884;48.616;12.872;2023-10-09T04:45:00;11.70;99.90
7684;DHT22;3884;48.616;12.872;2023-10-09T04:47:41;11.70;99.90
7684;DHT22;3884;48.616;12.872;2023-10-09T04:50:15;11.70;99.90
7684;DHT22;3884;48.616;12.872;2023-10-09T04:52:56;11.60;99.90
7684;DHT22;3884;48.616;12.872;2023-10-09T04:55:43;11.60;99.90
7684;DHT22;3884;48.616;12.872;2023-10-09T04:58:21;11.60;99.90
7684;DHT22;3884;48.616;12.872;2023-10-09T05:00:55;11.60;99.90
7684;DHT22;3884;48.616;12.872;2023-10-09T05:03:39;11.60;99.90
7684;DHT22;3884;48.616;12.872;2023-10-09T05:06:11;11.50;99.90
7684;DHT22;3884;48.616;12.872;2023-10-09T05:08:58;11.50;99.90
7684;DHT22;3884;48.616;12.872;2023-10-09T05:11:35;11.40;99.90
7684;DHT22;3884;48.616;12.872;2023-10-09T05:14:18;11.50;99.90
7684;DHT22;3884;48.616;12.872;2023-10-09T05:16:53;11.50;99.90
7684;DHT22;3884;48.616;12.872;2023-10-09T05:19:27;11.40;99.90
7684;DHT22;3884;48.616;12.872;2023-10-09T05:22:10;11.30;99.90
7684;DHT22;3884;48.616;12.872;2023-10-09T05:24:55;11.30;99.90
7684;DHT22;3884;48.616;12.872;2023-10-09T05:27:22;11.30;99.90
7684;DHT22;3884;48.616;12.872;2023-10-09T05:30:12;11.30;99.90
7684;DHT22;3884;48.616;12.872;2023-10-09T05:32:51;11.20;99.90
7684;DHT22;3884;48.616;12.872;2023-10-09T05:35:22;11.20;99.90
7684;DHT22;3884;48.616;12.872;2023-10-09T05:37:55;11.20;99.90
7684;DHT22;3884;48.616;12.872;2023-10-09T05:40:28;11.20;99.90
7684;DHT22;3884;48.616;12.872;2023-10-09T05:42:57;11.30;99.90
7684;DHT22;3884;48.616;12.872;2023-10-09T05:45:30;11.40;99.90
7684;DHT22;3884;48.616;12.872;2023-10-09T05:48:29;11.40;99.90
7684;DHT22;3884;48.616;12.872;2023-10-09T05:51:19;11.40;99.90
7684;DHT22;3884;48.616;12.872;2023-10-09T05:54:00;11.40;99.90
7684;DHT22;3884;48.616;12.872;2023-10-09T05:56:44;11.40;99.90
7684;DHT22;3884;48.616;12.872;2023-10-09T05:59:56;11.50;99.90
7684;DHT22;3884;48.616;12.872;2023-10-09T06:02:41;11.50;99.90
7684;DHT22;3884;48.616;12.872;2023-10-09T06:05:26;11.60;99.90
7684;DHT22;3884;48.616;12.872;2023-10-09T06:08:18;11.60;99.90
7684;DHT22;3884;48.616;12.872;2023-10-09T06:10:51;11.60;99.90
7684;DHT22;3884;48.616;12.872;2023-10-09T06:13:31;11.60;99.90
7684;DHT22;3884;48.616;12.872;2023-10-09T06:16:06;11.70;99.90
7684;DHT22;3884;48.616;12.872;2023-10-09T06:18:47;11.80;99.90
7684;DHT22;3884;48.616;12.872;2023-10-09T06:21:33;11.80;99.90
7684;DHT22;3884;48.616;12.872;2023-10-09T06:24:14;11.90;99.90
7684;DHT22;3884;48.616;12.872;2023-10-09T06:26:42;11.80;99.90
7684;DHT22;3884;48.616;12.872;2023-10-09T06:29:20;11.80;99.90
7684;DHT22;3884;48.616;12.872;2023-10-09T06:32:08;11.70;99.90
7684;DHT22;3884;48.616;12.872;2023-10-09T06:35:00;11.80;99.90
7684;DHT22;3884;48.616;12.872;2023-10-09T06:37:54;11.80;99.90
7684;DHT22;3884;48.616;12.872;2023-10-09T06:40:39;11.80;99.90
7684;DHT22;3884;48.616;12.872;2023-10-09T06:43:24;11.80;99.90
7684;DHT22;3884;48.616;12.872;2023-10-09T06:45:54;11.90;99.90
7684;DHT22;3884;48.616;12.872;2023-10-09T06:48:24;11.90;99.90
7684;DHT22;3884;48.616;12.872;2023-10-09T06:51:12;12.00;99.90
7684;DHT22;3884;48.616;12.872;2023-10-09T06:53:43;12.10;99.90
7684;DHT22;3884;48.616;12.872;2023-10-09T06:56:25;12.10;99.90
7684;DHT22;3884;48.616;12.872;2023-10-09T06:59:13;12.20;99.90
7684;DHT22;3884;48.616;12.872;2023-10-09T07:01:47;12.30;99.90
7684;DHT22;3884;48.616;12.872;2023-10-09T07:04:34;12.30;99.90
7684;DHT22;3884;48.616;12.872;2023-10-09T07:07:11;12.30;99.90
7684;DHT22;3884;48.616;12.872;2023-10-09T07:09:44;12.30;99.90
7684;DHT22;3884;48.616;12.872;2023-10-09T07:12:29;12.40;99.90
7684;DHT22;3884;48.616;12.872;2023-10-09T07:14:59;12.50;99.90
7684;DHT22;3884;48.616;12.872;2023-10-09T07:17:44;12.80;99.90
7684;DHT22;3884;48.616;12.872;2023-10-09T07:20:12;12.90;99.90
7684;DHT22;3884;48.616;12.872;2023-10-09T07:22:41;13.00;99.90
7684;DHT22;3884;48.616;12.872;2023-10-09T07:25:23;13.10;99.90
7684;DHT22;3884;48.616;12.872;2023-10-09T07:28:21;13.10;99.90
7684;DHT22;3884;48.616;12.872;2023-10-09T07:31:18;13.20;99.90
7684;DHT22;3884;48.616;12.872;2023-10-09T07:33:52;13.40;99.90
7684;DHT22;3884;48.616;12.872;2023-10-09T07:36:23;13.40;99.90
7684;DHT22;3884;48.616;12.872;2023-10-09T07:39:01;13.50;99.90
7684;DHT22;3884;48.616;12.872;2023-10-09T07:41:33;13.60;99.90
7684;DHT22;3884;48.616;12.872;2023-10-09T07:44:04;13.70;99.90
7684;DHT22;3884;48.616;12.872;2023-10-09T07:46:45;13.80;99.90
7684;DHT22;3884;48.616;12.872;2023-10-09T07:49:18;13.90;99.90
7684;DHT22;3884;48.616;12.872;2023-10-09T07:51:50;14.10;99.90
7684;DHT22;3884;48.616;12.872;2023-10-09T07:54:18;14.10;99.90
7684;DHT22;3884;48.616;12.872;2023-10-09T07:57:00;14.20;99.90
7684;DHT22;3884;48.616;12.872;2023-10-09T07:59:35;14.20;99.90
7684;DHT22;3884;48.616;12.872;2023-10-09T08:02:07;14.30;99.90
7684;DHT22;3884;48.616;12.872;2023-10-09T08:04:49;14.40;99.90
7684;DHT22;3884;48.616;12.872;2023-10-09T08:07:18;14.50;99.90
7684;DHT22;3884;48.616;12.872;2023-10-09T08:09:51;14.60;99.90
7684;DHT22;3884;48.616;12.872;2023-10-09T08:12:34;14.60;99.90
7684;DHT22;3884;48.616;12.872;2023-10-09T08:15:24;14.70;99.90
7684;DHT22;3884;48.616;12.872;2023-10-09T08:17:54;14.70;99.90
7684;DHT22;3884;48.616;12.872;2023-10-09T08:20:26;14.70;99.90
7684;DHT22;3884;48.616;12.872;2023-10-09T08:22:52;14.70;99.90
7684;DHT22;3884;48.616;12.872;2023-10-09T08:25:21;14.80;99.90
7684;DHT22;3884;48.616;12.872;2023-10-09T08:27:57;14.80;99.90
7684;DHT22;3884;48.616;12.872;2023-10-09T08:30:44;14.90;99.90
7684;DHT22;3884;48.616;12.872;2023-10-09T08:33:15;14.90;99.90
7684;DHT22;3884;48.616;12.872;2023-10-09T08:36:00;15.00;99.90
7684;DHT22;3884;48.616;12.872;2023-10-09T08:38:30;15.20;99.90
7684;DHT22;3884;48.616;12.872;2023-10-09T08:41:07;15.30;99.90
7684;DHT22;3884;48.616;12.872;2023-10-09T08:43:47;15.30;99.90
7684;DHT22;3884;48.616;12.872;2023-10-09T08:46:21;15.30;99.90
7684;DHT22;3884;48.616;12.872;2023-10-09T08:48:49;15.40;99.90
7684;DHT22;3884;48.616;12.872;2023-10-09T08:51:17;15.50;99.90
7684;DHT22;3884;48.616;12.872;2023-10-09T08:53:44;15.60;4.60
7684;DHT22;3884;48.616;12.872;2023-10-09T08:56:12;15.60;1.00
7684;DHT22;3884;48.616;12.872;2023-10-09T08:58:41;15.60;1.00
7684;DHT22;3884;48.616;12.872;2023-10-09T09:01:15;15.70;1.00
7684;DHT22;3884;48.616;12.872;2023-10-09T09:03:42;15.70;7.80
7684;DHT22;3884;48.616;12.872;2023-10-09T09:06:10;16.00;1.00
7684;DHT22;3884;48.616;12.872;2023-10-09T09:08:40;16.00;1.00
7684;DHT22;3884;48.616;12.872;2023-10-09T09:11:12;16.20;1.00
7684;DHT22;3884;48.616;12.872;2023-10-09T09:13:43;16.20;1.00
7684;DHT22;3884;48.616;12.872;2023-10-09T09:16:29;16.40;99.90
7684;DHT22;3884;48.616;12.872;2023-10-09T09:18:59;16.40;99.90
7684;DHT22;3884;48.616;12.872;2023-10-09T09:21:29;16.50;99.90
7684;DHT22;3884;48.616;12.872;2023-10-09T09:24:04;16.60;99.90
7684;DHT22;3884;48.616;12.872;2023-10-09T09:26:42;16.70;99.90
7684;DHT22;3884;48.616;12.872;2023-10-09T09:29:12;16.80;99.90
7684;DHT22;3884;48.616;12.872;2023-10-09T09:31:54;17.10;6.00
7684;DHT22;3884;48.616;12.872;2023-10-09T09:34:23;16.90;45.60
7684;DHT22;3884;48.616;12.872;2023-10-09T09:36:57;17.00;1.00
7684;DHT22;3884;48.616;12.872;2023-10-09T09:39:26;17.20;2.10
7684;DHT22;3884;48.616;12.872;2023-10-09T09:41:55;17.20;1.00
7684;DHT22;3884;48.616;12.872;2023-10-09T09:44:31;17.40;99.90
7684;DHT22;3884;48.616;12.872;2023-10-09T09:47:12;17.60;1.00
7684;DHT22;3884;48.616;12.872;2023-10-09T09:49:50;17.60;1.00
7684;DHT22;3884;48.616;12.872;2023-10-09T09:52:26;17.70;99.90
7684;DHT22;3884;48.616;12.872;2023-10-09T09:54:53;17.80;99.90
7684;DHT22;3884;48.616;12.872;2023-10-09T09:57:23;17.90;68.60
7684;DHT22;3884;48.616;12.872;2023-10-09T09:59:53;18.10;1.00
7684;DHT22;3884;48.616;12.872;2023-10-09T10:02:28;18.10;1.00
7684;DHT22;3884;48.616;12.872;2023-10-09T10:05:02;18.20;1.00
7684;DHT22;3884;48.616;12.872;2023-10-09T10:07:32;18.30;1.00
7684;DHT22;3884;48.616;12.872;2023-10-09T10:10:34;18.40;99.90
7684;DHT22;3884;48.616;12.872;2023-10-09T10:13:03;18.50;99.90
7684;DHT22;3884;48.616;12.872;2023-10-09T10:16:04;18.60;99.90
7684;DHT22;3884;48.616;12.872;2023-10-09T10:18:57;18.60;13.90
7684;DHT22;3884;48.616;12.872;2023-10-09T10:21:47;18.80;1.00
7684;DHT22;3884;48.616;12.872;2023-10-09T10:24:40;19.00;1.00
7684;DHT22;3884;48.616;12.872;2023-10-09T10:27:26;19.10;1.00
7684;DHT22;3884;48.616;12.872;2023-10-09T10:33:09;19.00;1.00
7684;DHT22;3884;48.616;12.872;2023-10-09T10:35:40;19.00;1.00
7684;DHT22;3884;48.616;12.872;2023-10-09T10:38:25;19.10;1.00
7684;DHT22;3884;48.616;12.872;2023-10-09T10:41:14;19.10;1.00
7684;DHT22;3884;48.616;12.872;2023-10-09T10:43:45;19.20;1.00
7684;DHT22;3884;48.616;12.872;2023-10-09T10:46:50;19.20;1.00
7684;DHT22;3884;48.616;12.872;2023-10-09T10:49:22;19.20;1.00
7684;DHT22;3884;48.616;12.872;2023-10-09T10:51:53;19.10;1.00
7684;DHT22;3884;48.616;12.872;2023-10-09T10:54:27;19.10;1.00
7684;DHT22;3884;48.616;12.872;2023-10-09T10:57:17;19.00;1.00
7684;DHT22;3884;48.616;12.872;2023-10-09T10:59:55;19.10;1.00
7684;DHT22;3884;48.616;12.872;2023-10-09T11:02:44;19.00;1.00
7684;DHT22;3884;48.616;12.872;2023-10-09T11:05:14;19.00;1.00
7684;DHT22;3884;48.616;12.872;2023-10-09T11:07:51;19.00;1.00
7684;DHT22;3884;48.616;12.872;2023-10-09T11:10:23;19.00;1.00
7684;DHT22;3884;48.616;12.872;2023-10-09T11:12:57;19.00;1.00
7684;DHT22;3884;48.616;12.872;2023-10-09T11:15:56;19.00;1.00
7684;DHT22;3884;48.616;12.872;2023-10-09T11:18:41;19.10;1.00
7684;DHT22;3884;48.616;12.872;2023-10-09T11:21:14;19.20;1.00
7684;DHT22;3884;48.616;12.872;2023-10-09T11:23:59;19.20;1.00
7684;DHT22;3884;48.616;12.872;2023-10-09T11:26:47;19.20;1.00
7684;DHT22;3884;48.616;12.872;2023-10-09T11:29:20;19.20;1.00
7684;DHT22;3884;48.616;12.872;2023-10-09T11:32:02;19.00;99.90
7684;DHT22;3884;48.616;12.872;2023-10-09T11:34:31;19.00;99.90
7684;DHT22;3884;48.616;12.872;2023-10-09T11:36:58;18.90;99.90
7684;DHT22;3884;48.616;12.872;2023-10-09T11:39:29;18.80;1.00
7684;DHT22;3884;48.616;12.872;2023-10-09T11:42:04;18.70;1.00
7684;DHT22;3884;48.616;12.872;2023-10-09T11:44:41;18.60;1.00
7684;DHT22;3884;48.616;12.872;2023-10-09T11:47:11;18.50;1.00
7684;DHT22;3884;48.616;12.872;2023-10-09T11:49:50;18.50;1.00
7684;DHT22;3884;48.616;12.872;2023-10-09T11:52:28;18.30;99.90
7684;DHT22;3884;48.616;12.872;2023-10-09T11:55:06;18.20;1.00
7684;DHT22;3884;48.616;12.872;2023-10-09T11:57:33;18.30;1.00
7684;DHT22;3884;48.616;12.872;2023-10-09T12:00:02;18.30;1.00
7684;DHT22;3884;48.616;12.872;2023-10-09T12:02:36;18.20;99.90
7684;DHT22;3884;48.616;12.872;2023-10-09T12:05:10;17.90;1.00
7684;DHT22;3884;48.616;12.872;2023-10-09T12:07:43;17.80;49.00
7684;DHT22;3884;48.616;12.872;2023-10-09T12:10:12;18.00;1.00
7684;DHT22;3884;48.616;12.872;2023-10-09T12:12:50;18.00;1.00
7684;DHT22;3884;48.616;12.872;2023-10-09T12:15:17;18.10;1.00
7684;DHT22;3884;48.616;12.872;2023-10-09T12:17:45;18.00;99.90
7684;DHT22;3884;48.616;12.872;2023-10-09T12:20:13;18.00;1.00
7684;DHT22;3884;48.616;12.872;2023-10-09T12:22:57;17.90;1.00
7684;DHT22;3884;48.616;12.872;2023-10-09T12:28:23;17.80;99.90
7684;DHT22;3884;48.616;12.872;2023-10-09T12:30:51;17.90;99.90
7684;DHT22;3884;48.616;12.872;2023-10-09T12:33:21;17.70;65.20
7684;DHT22;3884;48.616;12.872;2023-10-09T12:35:53;17.80;99.90
7684;DHT22;3884;48.616;12.872;2023-10-09T12:38:25;17.80;99.90
7684;DHT22;3884;48.616;12.872;2023-10-09T12:41:02;17.80;1.00
7684;DHT22;3884;48.616;12.872;2023-10-09T12:43:35;17.80;99.90
7684;DHT22;3884;48.616;12.872;2023-10-09T12:46:07;17.70;99.90
7684;DHT22;3884;48.616;12.872;2023-10-09T12:48:34;17.70;97.70
7684;DHT22;3884;48.616;12.872;2023-10-09T12:51:01;17.40;99.90
7684;DHT22;3884;48.616;12.872;2023-10-09T12:53:31;17.30;99.90
7684;DHT22;3884;48.616;12.872;2023-10-09T12:55:59;17.30;99.90
7684;DHT22;3884;48.616;12.872;2023-10-09T12:58:26;17.40;1.00
7684;DHT22;3884;48.616;12.872;2023-10-09T13:00:59;17.20;1.00
7684;DHT22;3884;48.616;12.872;2023-10-09T13:03:35;17.30;9.10
7684;DHT22;3884;48.616;12.872;2023-10-09T13:06:04;17.30;1.00
7684;DHT22;3884;48.616;12.872;2023-10-09T13:08:36;17.30;1.00
7684;DHT22;3884;48.616;12.872;2023-10-09T13:11:07;17.30;1.00
7684;DHT22;3884;48.616;12.872;2023-10-09T13:13:37;17.30;1.00
7684;DHT22;3884;48.616;12.872;2023-10-09T13:16:11;17.30;1.00
7684;DHT22;3884;48.616;12.872;2023-10-09T13:18:40;17.30;20.80
7684;DHT22;3884;48.616;12.872;2023-10-09T13:21:07;17.40;1.00
7684;DHT22;3884;48.616;12.872;2023-10-09T13:23:34;17.30;1.00
7684;DHT22;3884;48.616;12.872;2023-10-09T13:26:12;17.40;99.90
7684;DHT22;3884;48.616;12.872;2023-10-09T13:28:50;17.50;99.90
7684;DHT22;3884;48.616;12.872;2023-10-09T13:31:23;17.50;87.80
7684;DHT22;3884;48.616;12.872;2023-10-09T13:33:54;17.40;99.90
7684;DHT22;3884;48.616;12.872;2023-10-09T13:36:21;17.50;1.00
7684;DHT22;3884;48.616;12.872;2023-10-09T13:38:56;17.60;1.00
7684;DHT22;3884;48.616;12.872;2023-10-09T13:41:23;17.50;99.90
7684;DHT22;3884;48.616;12.872;2023-10-09T13:43:55;17.60;1.00
7684;DHT22;3884;48.616;12.872;2023-10-09T13:46:28;17.50;1.00
7684;DHT22;3884;48.616;12.872;2023-10-09T13:48:55;17.40;1.00
7684;DHT22;3884;48.616;12.872;2023-10-09T13:51:22;17.40;1.00
7684;DHT22;3884;48.616;12.872;2023-10-09T13:53:50;17.40;1.00
7684;DHT22;3884;48.616;12.872;2023-10-09T13:56:18;17.50;1.00
7684;DHT22;3884;48.616;12.872;2023-10-09T13:58:46;17.50;99.90
7684;DHT22;3884;48.616;12.872;2023-10-09T14:01:13;17.40;1.00
7684;DHT22;3884;48.616;12.872;2023-10-09T14:03:55;17.50;1.00
7684;DHT22;3884;48.616;12.872;2023-10-09T14:06:23;17.40;1.00
7684;DHT22;3884;48.616;12.872;2023-10-09T14:08:58;17.30;99.90
7684;DHT22;3884;48.616;12.872;2023-10-09T14:11:25;17.30;99.90
7684;DHT22;3884;48.616;12.872;2023-10-09T14:13:52;17.10;99.90
7684;DHT22;3884;48.616;12.872;2023-10-09T14:16:20;17.00;99.90
7684;DHT22;3884;48.616;12.872;2023-10-09T14:18:58;17.10;99.90
7684;DHT22;3884;48.616;12.872;2023-10-09T14:21:27;17.20;1.00
7684;DHT22;3884;48.616;12.872;2023-10-09T14:23:56;17.30;1.00
7684;DHT22;3884;48.616;12.872;2023-10-09T14:26:26;17.20;99.90
7684;DHT22;3884;48.616;12.872;2023-10-09T14:28:54;17.40;1.00
7684;DHT22;3884;48.616;12.872;2023-10-09T14:31:23;17.50;1.00
7684;DHT22;3884;48.616;12.872;2023-10-09T14:33:54;17.50;1.00
7684;DHT22;3884;48.616;12.872;2023-10-09T14:36:23;17.60;99.90
7684;DHT22;3884;48.616;12.872;2023-10-09T14:38:59;17.50;99.90
7684;DHT22;3884;48.616;12.872;2023-10-09T14:41:26;17.60;99.90
7684;DHT22;3884;48.616;12.872;2023-10-09T14:43:59;17.60;99.90
7684;DHT22;3884;48.616;12.872;2023-10-09T14:46:26;17.70;99.90
7684;DHT22;3884;48.616;12.872;2023-10-09T14:48:54;17.70;98.70
7684;DHT22;3884;48.616;12.872;2023-10-09T14:51:23;17.70;99.90
7684;DHT22;3884;48.616;12.872;2023-10-09T14:53:54;17.60;99.90
7684;DHT22;3884;48.616;12.872;2023-10-09T14:56:24;17.60;99.90
7684;DHT22;3884;48.616;12.872;2023-10-09T14:58:56;17.60;80.50
7684;DHT22;3884;48.616;12.872;2023-10-09T15:01:24;17.50;1.00
7684;DHT22;3884;48.616;12.872;2023-10-09T15:03:55;17.70;1.00
7684;DHT22;3884;48.616;12.872;2023-10-09T15:06:25;17.80;1.00
7684;DHT22;3884;48.616;12.872;2023-10-09T15:08:53;17.80;1.00
7684;DHT22;3884;48.616;12.872;2023-10-09T15:11:26;17.90;1.00
7684;DHT22;3884;48.616;12.872;2023-10-09T15:13:54;17.90;1.00
7684;DHT22;3884;48.616;12.872;2023-10-09T15:16:22;17.90;1.00
7684;DHT22;3884;48.616;12.872;2023-10-09T15:18:53;17.90;1.00
7684;DHT22;3884;48.616;12.872;2023-10-09T15:21:20;18.00;1.00
7684;DHT22;3884;48.616;12.872;2023-10-09T15:23:50;18.10;1.00
7684;DHT22;3884;48.616;12.872;2023-10-09T15:26:21;17.90;1.00
7684;DHT22;3884;48.616;12.872;2023-10-09T15:28:49;18.10;99.90
7684;DHT22;3884;48.616;12.872;2023-10-09T15:31:17;18.10;99.90
7684;DHT22;3884;48.616;12.872;2023-10-09T15:33:46;18.20;99.90
7684;DHT22;3884;48.616;12.872;2023-10-09T15:36:17;18.10;99.90
7684;DHT22;3884;48.616;12.872;2023-10-09T15:38:46;18.20;99.90
7684;DHT22;3884;48.616;12.872;2023-10-09T15:41:17;18.10;99.90
7684;DHT22;3884;48.616;12.872;2023-10-09T15:43:47;18.10;99.90
7684;DHT22;3884;48.616;12.872;2023-10-09T15:46:14;18.30;99.90
7684;DHT22;3884;48.616;12.872;2023-10-09T15:48:41;18.30;99.90
7684;DHT22;3884;48.616;12.872;2023-10-09T15:51:11;18.20;99.90
7684;DHT22;3884;48.616;12.872;2023-10-09T15:53:45;18.20;99.90
7684;DHT22;3884;48.616;12.872;2023-10-09T15:56:14;18.00;99.90
7684;DHT22;3884;48.616;12.872;2023-10-09T15:58:45;17.90;99.90
7684;DHT22;3884;48.616;12.872;2023-10-09T16:01:17;17.80;1.00
7684;DHT22;3884;48.616;12.872;2023-10-09T16:03:48;17.60;1.00
7684;DHT22;3884;48.616;12.872;2023-10-09T16:06:32;17.60;1.00
7684;DHT22;3884;48.616;12.872;2023-10-09T16:09:03;17.50;1.00
7684;DHT22;3884;48.616;12.872;2023-10-09T16:11:32;17.50;1.00
7684;DHT22;3884;48.616;12.872;2023-10-09T16:14:05;17.50;1.00
7684;DHT22;3884;48.616;12.872;2023-10-09T16:16:36;17.50;1.00
7684;DHT22;3884;48.616;12.872;2023-10-09T16:19:07;17.00;1.00
7684;DHT22;3884;48.616;12.872;2023-10-09T16:21:48;16.90;99.90
7684;DHT22;3884;48.616;12.872;2023-10-09T16:24:18;16.70;1.00
7684;DHT22;3884;48.616;12.872;2023-10-09T16:26:45;16.70;99.90
7684;DHT22;3884;48.616;12.872;2023-10-09T16:29:18;16.60;99.90
7684;DHT22;3884;48.616;12.872;2023-10-09T16:31:45;16.60;99.90
7684;DHT22;3884;48.616;12.872;2023-10-09T16:34:12;16.50;1.00
7684;DHT22;3884;48.616;12.872;2023-10-09T16:36:41;16.40;1.00
7684;DHT22;3884;48.616;12.872;2023-10-09T16:39:08;16.30;99.90
7684;DHT22;3884;48.616;12.872;2023-10-09T16:41:44;16.30;1.00